LPPS/PXO METAR and TAF weather

Enter ICAO airport designator
Station Type Date Time Source
LPPS METAR 2021/09/16 10:00 UTC NOAA

LPPS 161000Z 05012KT 010V080 9999 FEW014 25/17 Q1023


Station Type Date Time Source
LPPS Decoded METAR 2021/09/16 10:00 UTC NOAA

Porto Santo, Portugal (LPPS) 33-04N 016-21W 82M
Sep 16, 2021 - 06:00 AM EDT / 2021.09.16 1000 UTC
Wind: from the NE (050 degrees) at 14 MPH (12 KT) (direction variable):0
Visibility: greater than 7 mile(s):0
Sky conditions: mostly clear
Temperature: 77 F (25 C)
Dew Point: 62 F (17 C)
Relative Humidity: 61%
Pressure (altimeter): 30.21 in. Hg (1023 hPa)
ob: LPPS 161000Z 05012KT 010V080 9999 FEW014 25/17 Q1023
cycle: 10

Station Type Date Time Source
LPPS TAF 2021/09/16 06:18 UTC NOAA

TAF LPPS 160500Z 1606/1712 02013KT 9999 SCT015 PROB30
TEMPO 1606/1615 8000 -SHRA BKN013 FEW018TCU PROB40
TEMPO 1700/1708 7000 SHRA BKN012 FEW018TCU

Example: see airport list